CEB997 RPLL-RPVM
Flight info
| Callsign | CEB997 |
|---|---|
| Flight time | 0h 52m |
| Altitude | 39000 |
| Route | IPATA2R IPATA W25 BATAY BATAY3P |
| Aircraft | A20N/M-SDE2E3FGHIRWXY/LB1 |
Departure
| Time | 2026-05-08 06:54 |
|---|---|
| Airport | Ninoy Aquino International Airport (RPLL) |
Arrival
| Time | 2026-05-08 07:46 |
|---|---|
| Airport | Mactan Cebu International Airport (RPVM) |
| Time | Latitude | Longitude | Altitude | Speed | Heading |
|---|---|---|---|---|---|
| 2026-05-08 06:31 | 14.50481 | 121.00591 | 42 ft | 0 kts | 12° |
| 2026-05-08 06:41 | 14.50476 | 121.00590 | 42 ft | 1 kts | 12° |
| 2026-05-08 06:41 | 14.50469 | 121.00588 | 39 ft | 1 kts | 8° |
| 2026-05-08 06:41 | 14.50461 | 121.00587 | 40 ft | 1 kts | 6° |
| 2026-05-08 06:42 | 14.50454 | 121.00586 | 40 ft | 1 kts | 4° |
| 2026-05-08 06:42 | 14.50442 | 121.00586 | 41 ft | 3 kts | 2° |
| 2026-05-08 06:42 | 14.50424 | 121.00585 | 39 ft | 3 kts | 2° |
| 2026-05-08 06:42 | 14.50405 | 121.00585 | 39 ft | 3 kts | 348° |
| 2026-05-08 06:43 | 14.50388 | 121.00591 | 39 ft | 3 kts | 332° |
| 2026-05-08 06:43 | 14.50372 | 121.00602 | 41 ft | 3 kts | 303° |
| 2026-05-08 06:43 | 14.50369 | 121.00610 | 37 ft | 0 kts | 257° |
| 2026-05-08 06:50 | 14.50369 | 121.00609 | 37 ft | 1 kts | 257° |
| 2026-05-08 06:50 | 14.50358 | 121.00596 | 38 ft | 4 kts | 225° |
| 2026-05-08 06:50 | 14.50328 | 121.00561 | 39 ft | 9 kts | 232° |
| 2026-05-08 06:51 | 14.50284 | 121.00495 | 39 ft | 13 kts | 240° |
| 2026-05-08 06:51 | 14.50236 | 121.00399 | 39 ft | 13 kts | 241° |
| 2026-05-08 06:51 | 14.50167 | 121.00341 | 38 ft | 15 kts | 177° |
| 2026-05-08 06:51 | 14.50084 | 121.00274 | 37 ft | 18 kts | 239° |
| 2026-05-08 06:52 | 14.50017 | 121.00152 | 36 ft | 21 kts | 240° |
| 2026-05-08 06:52 | 14.49971 | 121.00070 | 36 ft | 1 kts | 239° |
| 2026-05-08 06:52 | 14.49964 | 121.00059 | 36 ft | 1 kts | 239° |
| 2026-05-08 06:52 | 14.49954 | 121.00040 | 35 ft | 5 kts | 239° |
| 2026-05-08 06:53 | 14.49923 | 120.99991 | 35 ft | 12 kts | 228° |
| 2026-05-08 06:53 | 14.49831 | 120.99989 | 33 ft | 18 kts | 152° |
| 2026-05-08 06:53 | 14.49826 | 121.00091 | 35 ft | 17 kts | 62° |
| 2026-05-08 06:53 | 14.49989 | 121.00393 | 36 ft | 83 kts | 62° |
| 2026-05-08 06:54 | 14.50377 | 121.01092 | 46 ft | 137 kts | 60° |
| 2026-05-08 06:54 | 14.50911 | 121.02011 | 414 ft | 148 kts | 63° |
| 2026-05-08 06:54 | 14.51466 | 121.02925 | 970 ft | 158 kts | 63° |
| 2026-05-08 06:54 | 14.51979 | 121.03882 | 1776 ft | 147 kts | 64° |
| 2026-05-08 06:55 | 14.52480 | 121.04842 | 2252 ft | 160 kts | 65° |
| 2026-05-08 06:55 | 14.52763 | 121.05985 | 2636 ft | 174 kts | 94° |
| 2026-05-08 06:55 | 14.52347 | 121.07188 | 3082 ft | 186 kts | 122° |
| 2026-05-08 06:55 | 14.51448 | 121.08266 | 3341 ft | 210 kts | 132° |
| 2026-05-08 06:56 | 14.50336 | 121.09373 | 3691 ft | 233 kts | 134° |
| 2026-05-08 06:56 | 14.49143 | 121.10581 | 4142 ft | 254 kts | 133° |
| 2026-05-08 06:56 | 14.47876 | 121.11935 | 4838 ft | 266 kts | 131° |
| 2026-05-08 06:56 | 14.46603 | 121.13345 | 5827 ft | 270 kts | 130° |
| 2026-05-08 06:57 | 14.45325 | 121.14788 | 6750 ft | 275 kts | 130° |
| 2026-05-08 06:57 | 14.44023 | 121.16268 | 7664 ft | 280 kts | 130° |
| 2026-05-08 06:57 | 14.42707 | 121.17768 | 8571 ft | 286 kts | 130° |
| 2026-05-08 06:57 | 14.41360 | 121.19304 | 9485 ft | 290 kts | 130° |
| 2026-05-08 06:58 | 14.39994 | 121.20861 | 10311 ft | 297 kts | 130° |
| 2026-05-08 06:58 | 14.38554 | 121.22501 | 10685 ft | 320 kts | 130° |
| 2026-05-08 06:58 | 14.37011 | 121.24260 | 11008 ft | 341 kts | 130° |
| 2026-05-08 06:58 | 14.35393 | 121.26098 | 11692 ft | 348 kts | 130° |
| 2026-05-08 06:59 | 14.33759 | 121.27950 | 12504 ft | 351 kts | 129° |
| 2026-05-08 06:59 | 14.32124 | 121.29803 | 13259 ft | 356 kts | 130° |
| 2026-05-08 06:59 | 14.30441 | 121.31713 | 13954 ft | 361 kts | 130° |
| 2026-05-08 06:59 | 14.28749 | 121.33635 | 14664 ft | 364 kts | 130° |
| 2026-05-08 07:00 | 14.27043 | 121.35569 | 15411 ft | 364 kts | 130° |
| 2026-05-08 07:00 | 14.25325 | 121.37519 | 16080 ft | 368 kts | 130° |
| 2026-05-08 07:00 | 14.23600 | 121.39475 | 16798 ft | 370 kts | 130° |
| 2026-05-08 07:00 | 14.21860 | 121.41448 | 17398 ft | 374 kts | 130° |
| 2026-05-08 07:01 | 14.20102 | 121.43444 | 18029 ft | 379 kts | 131° |
| 2026-05-08 07:01 | 14.18312 | 121.45472 | 18550 ft | 382 kts | 130° |
| 2026-05-08 07:01 | 14.16523 | 121.47500 | 19135 ft | 384 kts | 130° |
| 2026-05-08 07:01 | 14.14719 | 121.49542 | 19412 ft | 386 kts | 131° |
| 2026-05-08 07:02 | 14.12900 | 121.51604 | 19522 ft | 391 kts | 131° |
| 2026-05-08 07:02 | 14.11075 | 121.53669 | 19622 ft | 390 kts | 131° |
| 2026-05-08 07:02 | 14.09249 | 121.55734 | 19712 ft | 391 kts | 131° |
| 2026-05-08 07:02 | 14.07418 | 121.57804 | 19806 ft | 390 kts | 131° |
| 2026-05-08 07:03 | 14.05616 | 121.59841 | 19855 ft | 388 kts | 130° |
| 2026-05-08 07:03 | 14.03789 | 121.61909 | 19857 ft | 393 kts | 131° |
| 2026-05-08 07:03 | 14.01948 | 121.63990 | 19861 ft | 393 kts | 131° |
| 2026-05-08 07:03 | 14.00102 | 121.66078 | 19851 ft | 394 kts | 131° |
| 2026-05-08 07:04 | 13.98258 | 121.68162 | 19852 ft | 393 kts | 131° |
| 2026-05-08 07:04 | 13.96411 | 121.70247 | 19851 ft | 393 kts | 131° |
| 2026-05-08 07:04 | 13.94571 | 121.72325 | 19851 ft | 393 kts | 131° |
| 2026-05-08 07:04 | 13.92728 | 121.74405 | 19851 ft | 393 kts | 131° |
| 2026-05-08 07:05 | 13.90885 | 121.76486 | 19851 ft | 394 kts | 131° |
| 2026-05-08 07:05 | 13.89064 | 121.78541 | 19851 ft | 393 kts | 131° |
| 2026-05-08 07:05 | 13.87192 | 121.80603 | 19841 ft | 392 kts | 134° |
| 2026-05-08 07:05 | 13.85135 | 121.82443 | 19843 ft | 394 kts | 141° |
| 2026-05-08 07:06 | 13.82908 | 121.84114 | 19843 ft | 394 kts | 142° |
| 2026-05-08 07:06 | 13.80690 | 121.85782 | 19843 ft | 395 kts | 142° |
| 2026-05-08 07:06 | 13.78475 | 121.87454 | 19843 ft | 395 kts | 142° |
| 2026-05-08 07:06 | 13.76266 | 121.89122 | 19843 ft | 394 kts | 142° |
| 2026-05-08 07:07 | 13.74049 | 121.90796 | 19842 ft | 394 kts | 142° |
| 2026-05-08 07:07 | 13.71833 | 121.92468 | 19840 ft | 394 kts | 142° |
| 2026-05-08 07:07 | 13.69647 | 121.94118 | 19840 ft | 395 kts | 142° |
| 2026-05-08 07:07 | 13.67428 | 121.95791 | 19840 ft | 394 kts | 142° |
| 2026-05-08 07:08 | 13.65214 | 121.97460 | 19834 ft | 394 kts | 142° |
| 2026-05-08 07:08 | 13.63001 | 121.99128 | 19834 ft | 394 kts | 142° |
| 2026-05-08 07:08 | 13.60790 | 122.00794 | 19834 ft | 394 kts | 142° |
| 2026-05-08 07:08 | 13.58613 | 122.02433 | 19836 ft | 394 kts | 142° |
| 2026-05-08 07:09 | 13.56392 | 122.04107 | 20046 ft | 398 kts | 142° |
| 2026-05-08 07:09 | 13.54227 | 122.05737 | 20624 ft | 399 kts | 142° |
| 2026-05-08 07:09 | 13.51977 | 122.07431 | 21153 ft | 403 kts | 142° |
| 2026-05-08 07:09 | 13.49702 | 122.09143 | 21681 ft | 407 kts | 142° |
| 2026-05-08 07:10 | 13.47410 | 122.10867 | 22187 ft | 411 kts | 142° |
| 2026-05-08 07:10 | 13.45139 | 122.12575 | 22686 ft | 414 kts | 142° |
| 2026-05-08 07:10 | 13.42848 | 122.14298 | 23185 ft | 418 kts | 142° |
| 2026-05-08 07:10 | 13.40503 | 122.16061 | 23638 ft | 422 kts | 143° |
| 2026-05-08 07:11 | 13.38126 | 122.17848 | 24105 ft | 424 kts | 143° |
| 2026-05-08 07:11 | 13.35739 | 122.19642 | 24548 ft | 426 kts | 143° |
| 2026-05-08 07:11 | 13.33372 | 122.21421 | 24996 ft | 428 kts | 143° |
| 2026-05-08 07:11 | 13.31014 | 122.23192 | 25413 ft | 431 kts | 143° |
| 2026-05-08 07:12 | 13.28591 | 122.25012 | 25834 ft | 433 kts | 143° |
| 2026-05-08 07:12 | 13.26151 | 122.26844 | 26245 ft | 436 kts | 143° |
| 2026-05-08 07:12 | 13.23695 | 122.28688 | 26652 ft | 438 kts | 143° |
| 2026-05-08 07:12 | 13.21256 | 122.30518 | 27035 ft | 440 kts | 143° |
| 2026-05-08 07:13 | 13.18766 | 122.32386 | 27424 ft | 443 kts | 144° |
| 2026-05-08 07:13 | 13.16275 | 122.34255 | 27803 ft | 445 kts | 144° |
| 2026-05-08 07:13 | 13.13766 | 122.36138 | 28226 ft | 446 kts | 144° |
| 2026-05-08 07:13 | 13.11253 | 122.38024 | 28631 ft | 448 kts | 144° |
| 2026-05-08 07:14 | 13.08732 | 122.39913 | 28971 ft | 450 kts | 144° |
| 2026-05-08 07:14 | 13.06196 | 122.41812 | 29324 ft | 452 kts | 144° |
| 2026-05-08 07:14 | 13.03645 | 122.43722 | 29687 ft | 455 kts | 144° |
| 2026-05-08 07:14 | 13.01113 | 122.45617 | 29999 ft | 457 kts | 145° |
| 2026-05-08 07:15 | 12.98566 | 122.47525 | 30688 ft | 446 kts | 145° |
| 2026-05-08 07:15 | 12.96108 | 122.49368 | 31746 ft | 429 kts | 146° |
| 2026-05-08 07:15 | 12.93749 | 122.51138 | 32817 ft | 410 kts | 146° |
| 2026-05-08 07:15 | 12.91490 | 122.52832 | 33837 ft | 394 kts | 147° |
| 2026-05-08 07:16 | 12.89273 | 122.54491 | 34111 ft | 397 kts | 147° |
| 2026-05-08 07:16 | 12.87045 | 122.56151 | 34170 ft | 404 kts | 147° |
| 2026-05-08 07:16 | 12.82416 | 122.59603 | 34277 ft | 418 kts | 147° |
| 2026-05-08 07:17 | 12.77625 | 122.63181 | 34403 ft | 433 kts | 147° |
| 2026-05-08 07:17 | 12.72675 | 122.66878 | 34511 ft | 447 kts | 146° |
| 2026-05-08 07:18 | 12.67610 | 122.70658 | 34628 ft | 460 kts | 146° |
| 2026-05-08 07:18 | 12.62369 | 122.74567 | 34774 ft | 470 kts | 146° |
| 2026-05-08 07:19 | 12.59753 | 122.76519 | 35444 ft | 457 kts | 147° |
| 2026-05-08 07:19 | 12.57244 | 122.78395 | 36546 ft | 434 kts | 147° |
| 2026-05-08 07:19 | 12.54854 | 122.80182 | 37330 ft | 424 kts | 147° |
| 2026-05-08 07:19 | 12.52460 | 122.81962 | 37441 ft | 427 kts | 147° |
| 2026-05-08 07:20 | 12.50043 | 122.83757 | 37555 ft | 430 kts | 147° |
| 2026-05-08 07:20 | 12.47603 | 122.85570 | 37677 ft | 434 kts | 147° |
| 2026-05-08 07:20 | 12.45188 | 122.87366 | 37797 ft | 437 kts | 147° |
| 2026-05-08 07:20 | 12.42722 | 122.89201 | 37916 ft | 440 kts | 147° |
| 2026-05-08 07:21 | 12.40239 | 122.91049 | 38034 ft | 442 kts | 147° |
| 2026-05-08 07:21 | 12.37737 | 122.92910 | 38156 ft | 445 kts | 147° |
| 2026-05-08 07:21 | 12.35228 | 122.94776 | 38271 ft | 448 kts | 147° |
| 2026-05-08 07:21 | 12.32706 | 122.96652 | 38397 ft | 450 kts | 147° |
| 2026-05-08 07:22 | 12.30161 | 122.98544 | 38510 ft | 453 kts | 147° |
| 2026-05-08 07:22 | 12.27602 | 123.00448 | 38613 ft | 455 kts | 147° |
| 2026-05-08 07:22 | 12.25038 | 123.02353 | 38716 ft | 457 kts | 147° |
| 2026-05-08 07:22 | 12.22457 | 123.04269 | 38810 ft | 459 kts | 147° |
| 2026-05-08 07:23 | 12.17248 | 123.08136 | 38815 ft | 463 kts | 147° |
| 2026-05-08 07:23 | 12.12035 | 123.12007 | 38815 ft | 462 kts | 147° |
| 2026-05-08 07:24 | 12.06826 | 123.15872 | 38812 ft | 462 kts | 147° |
| 2026-05-08 07:24 | 12.01623 | 123.19729 | 38818 ft | 465 kts | 147° |
| 2026-05-08 07:25 | 11.96377 | 123.23617 | 38818 ft | 465 kts | 147° |
| 2026-05-08 07:25 | 11.91150 | 123.27485 | 38680 ft | 465 kts | 147° |
| 2026-05-08 07:26 | 11.89410 | 123.28774 | 38527 ft | 465 kts | 147° |
| 2026-05-08 07:26 | 11.85937 | 123.31346 | 38183 ft | 465 kts | 147° |
| 2026-05-08 07:26 | 11.83307 | 123.33293 | 37918 ft | 466 kts | 147° |
| 2026-05-08 07:26 | 11.81571 | 123.34577 | 37748 ft | 466 kts | 147° |
| 2026-05-08 07:27 | 11.78937 | 123.36525 | 37255 ft | 469 kts | 147° |
| 2026-05-08 07:27 | 11.76279 | 123.38490 | 36499 ft | 472 kts | 147° |
| 2026-05-08 07:27 | 11.73597 | 123.40471 | 35622 ft | 477 kts | 146° |
| 2026-05-08 07:27 | 11.70909 | 123.42457 | 34818 ft | 479 kts | 146° |
| 2026-05-08 07:28 | 11.68114 | 123.44317 | 33933 ft | 481 kts | 154° |
| 2026-05-08 07:28 | 11.65015 | 123.45598 | 32914 ft | 482 kts | 166° |
| 2026-05-08 07:28 | 11.61762 | 123.46232 | 31961 ft | 477 kts | 174° |
| 2026-05-08 07:28 | 11.58463 | 123.46562 | 30768 ft | 476 kts | 176° |
| 2026-05-08 07:29 | 11.55173 | 123.46847 | 29495 ft | 475 kts | 175° |
| 2026-05-08 07:29 | 11.51881 | 123.47176 | 28086 ft | 475 kts | 174° |
| 2026-05-08 07:29 | 11.48619 | 123.47551 | 27097 ft | 467 kts | 173° |
| 2026-05-08 07:29 | 11.45444 | 123.47947 | 26501 ft | 450 kts | 172° |
| 2026-05-08 07:30 | 11.42401 | 123.48340 | 26008 ft | 433 kts | 172° |
| 2026-05-08 07:30 | 11.39441 | 123.48727 | 25382 ft | 422 kts | 172° |
| 2026-05-08 07:30 | 11.36566 | 123.49104 | 24782 ft | 411 kts | 172° |
| 2026-05-08 07:30 | 11.33764 | 123.49472 | 24218 ft | 402 kts | 172° |
| 2026-05-08 07:31 | 11.31023 | 123.49831 | 23673 ft | 394 kts | 172° |
| 2026-05-08 07:31 | 11.28277 | 123.50191 | 23229 ft | 404 kts | 171° |
| 2026-05-08 07:31 | 11.25478 | 123.50558 | 22985 ft | 404 kts | 171° |
| 2026-05-08 07:31 | 11.22687 | 123.50922 | 22266 ft | 406 kts | 171° |
| 2026-05-08 07:32 | 11.19869 | 123.51290 | 21244 ft | 410 kts | 171° |
| 2026-05-08 07:32 | 11.17058 | 123.51655 | 20608 ft | 403 kts | 171° |
| 2026-05-08 07:32 | 11.14305 | 123.52013 | 20158 ft | 398 kts | 171° |
| 2026-05-08 07:32 | 11.11584 | 123.52368 | 19595 ft | 401 kts | 170° |
| 2026-05-08 07:33 | 11.08816 | 123.52730 | 18989 ft | 401 kts | 170° |
| 2026-05-08 07:33 | 11.06063 | 123.53089 | 18444 ft | 398 kts | 170° |
| 2026-05-08 07:33 | 11.03342 | 123.53443 | 18013 ft | 391 kts | 170° |
| 2026-05-08 07:33 | 11.00650 | 123.53794 | 17729 ft | 389 kts | 170° |
| 2026-05-08 07:34 | 10.97947 | 123.54150 | 17481 ft | 393 kts | 170° |
| 2026-05-08 07:34 | 10.95245 | 123.54504 | 17222 ft | 391 kts | 170° |
| 2026-05-08 07:34 | 10.92552 | 123.54856 | 16982 ft | 389 kts | 170° |
| 2026-05-08 07:34 | 10.89855 | 123.55209 | 16751 ft | 391 kts | 170° |
| 2026-05-08 07:35 | 10.87172 | 123.55560 | 16503 ft | 387 kts | 170° |
| 2026-05-08 07:35 | 10.84507 | 123.55907 | 16264 ft | 385 kts | 170° |
| 2026-05-08 07:35 | 10.81862 | 123.56253 | 16025 ft | 383 kts | 170° |
| 2026-05-08 07:35 | 10.79215 | 123.56598 | 15789 ft | 383 kts | 170° |
| 2026-05-08 07:36 | 10.76580 | 123.56942 | 15548 ft | 381 kts | 170° |
| 2026-05-08 07:36 | 10.73977 | 123.57281 | 15302 ft | 373 kts | 170° |
| 2026-05-08 07:36 | 10.71400 | 123.57617 | 15070 ft | 374 kts | 170° |
| 2026-05-08 07:36 | 10.68818 | 123.57954 | 14838 ft | 373 kts | 171° |
| 2026-05-08 07:37 | 10.66243 | 123.58291 | 14606 ft | 372 kts | 171° |
| 2026-05-08 07:37 | 10.63680 | 123.58625 | 14378 ft | 371 kts | 171° |
| 2026-05-08 07:37 | 10.61128 | 123.58958 | 14146 ft | 370 kts | 171° |
| 2026-05-08 07:37 | 10.58581 | 123.59289 | 13922 ft | 369 kts | 171° |
| 2026-05-08 07:38 | 10.56034 | 123.59620 | 13709 ft | 368 kts | 171° |
| 2026-05-08 07:38 | 10.53497 | 123.59950 | 13466 ft | 366 kts | 171° |
| 2026-05-08 07:38 | 10.51014 | 123.60273 | 13210 ft | 365 kts | 171° |
| 2026-05-08 07:38 | 10.48493 | 123.60600 | 12976 ft | 366 kts | 171° |
| 2026-05-08 07:39 | 10.45974 | 123.60928 | 12722 ft | 363 kts | 171° |
| 2026-05-08 07:39 | 10.43504 | 123.61248 | 12468 ft | 353 kts | 171° |
| 2026-05-08 07:39 | 10.41101 | 123.61558 | 12210 ft | 343 kts | 171° |
| 2026-05-08 07:39 | 10.38768 | 123.61860 | 11975 ft | 332 kts | 171° |
| 2026-05-08 07:40 | 10.36537 | 123.62255 | 11738 ft | 320 kts | 159° |
| 2026-05-08 07:40 | 10.34648 | 123.63338 | 11416 ft | 309 kts | 137° |
| 2026-05-08 07:40 | 10.33303 | 123.65035 | 10433 ft | 315 kts | 115° |
| 2026-05-08 07:40 | 10.32457 | 123.67121 | 9266 ft | 326 kts | 108° |
| 2026-05-08 07:41 | 10.31734 | 123.69331 | 8426 ft | 326 kts | 107° |
| 2026-05-08 07:41 | 10.31041 | 123.71443 | 8200 ft | 305 kts | 108° |
| 2026-05-08 07:41 | 10.30362 | 123.73407 | 7998 ft | 286 kts | 108° |
| 2026-05-08 07:41 | 10.29690 | 123.75274 | 7511 ft | 279 kts | 109° |
| 2026-05-08 07:42 | 10.29009 | 123.77120 | 6813 ft | 280 kts | 109° |
| 2026-05-08 07:42 | 10.28322 | 123.78953 | 6296 ft | 276 kts | 109° |
| 2026-05-08 07:42 | 10.27639 | 123.80762 | 5698 ft | 274 kts | 109° |
| 2026-05-08 07:42 | 10.26957 | 123.82563 | 5111 ft | 272 kts | 109° |
| 2026-05-08 07:43 | 10.26288 | 123.84334 | 4697 ft | 264 kts | 109° |
| 2026-05-08 07:43 | 10.25637 | 123.86053 | 4398 ft | 252 kts | 109° |
| 2026-05-08 07:43 | 10.25031 | 123.87652 | 4292 ft | 232 kts | 109° |
| 2026-05-08 07:43 | 10.24476 | 123.89119 | 4172 ft | 214 kts | 108° |
| 2026-05-08 07:44 | 10.24179 | 123.90516 | 4051 ft | 194 kts | 82° |
| 2026-05-08 07:44 | 10.24625 | 123.91708 | 4022 ft | 172 kts | 53° |
| 2026-05-08 07:44 | 10.25396 | 123.92502 | 3953 ft | 145 kts | 46° |
| 2026-05-08 07:44 | 10.26070 | 123.93179 | 3775 ft | 130 kts | 47° |
| 2026-05-08 07:45 | 10.26693 | 123.93817 | 3480 ft | 127 kts | 46° |
| 2026-05-08 07:45 | 10.27326 | 123.94470 | 2840 ft | 145 kts | 47° |
| 2026-05-08 07:45 | 10.28126 | 123.95291 | 1683 ft | 177 kts | 46° |
| 2026-05-08 07:45 | 10.29053 | 123.96189 | 670 ft | 182 kts | 44° |
| 2026-05-08 07:46 | 10.29890 | 123.97061 | 90 ft | 166 kts | 45° |
| 2026-05-08 07:46 | 10.30620 | 123.97792 | 34 ft | 125 kts | 43° |
| 2026-05-08 07:46 | 10.31048 | 123.98231 | 38 ft | 37 kts | 43° |
| 2026-05-08 07:46 | 10.31163 | 123.98301 | 39 ft | 3 kts | 25° |
| 2026-05-08 07:47 | 10.31213 | 123.98323 | 40 ft | 24 kts | 22° |
| 2026-05-08 07:47 | 10.31303 | 123.98349 | 40 ft | 4 kts | 10° |
| 2026-05-08 07:47 | 10.31388 | 123.98332 | 40 ft | 19 kts | 304° |
| 2026-05-08 07:47 | 10.31428 | 123.98287 | 39 ft | 4 kts | 314° |
| 2026-05-08 07:48 | 10.31469 | 123.98226 | 39 ft | 16 kts | 310° |
| 2026-05-08 07:48 | 10.31534 | 123.98171 | 40 ft | 6 kts | 318° |
| 2026-05-08 07:48 | 10.31570 | 123.98108 | 40 ft | 15 kts | 261° |
| 2026-05-08 07:48 | 10.31588 | 123.98038 | 40 ft | 0 kts | 316° |
| 2026-05-08 07:49 | 10.31595 | 123.98029 | 38 ft | 0 kts | 311° |